Mercury, Nevada
Current Conditions -  °F | °C
As of 4:52 AM on Wednesday 22 Oct 2014 (Local Time) from KDRA Reporting Station
Clear Clear  
Wind Chill: 51°   Ceiling: Unl
Heat Index: 51°   Visibility: 10mi
Dew Point: 24°   Wind: 8mph
Humidity: 35%   Direction: 90°E
Pressure: 29.99"   Gusts: NA
Location:  36.66°N, 116°W
Report Text: KDRA 221152Z AUTO 09007KT 10SM CLR 11/M04 A2999 RMK AO2 SLP124 T01061044 10150 20100 53009
Loading
Personal Weather Stations






























Interactive Weather Map
Tropical Storm Tracking
New forecast layout! Learn more

10-Day Weather Forecast

Advertisements
Track Severe Weather on mobile